Terminal Aerodrome Forecast
Issued by NWS Bismarck, ND

Home | Current Version | Previous Version | Graphics & Text | Print | Product List | Glossary On
Versions: 1 2 3 4 5 6 7 8 9 10 11 12 13 14 15 16 17 18 19
000
FTUS43 KBIS 141509 AAA
TAFISN
TAF AMD
KISN 141509Z 1415/1512 34012G17KT P6SM OVC018
      TEMPO 1415/1418 SCT018 OVC060
     FM141800 32013KT P6SM BKN035 BKN060
     FM150000 28007KT P6SM SCT035 BKN150
     FM150600 22005KT P6SM BKN110=

USA.gov is the U.S. government's official web portal to all federal, state and local government web resources and services.